sensor_id;sensor_type;location;lat;lon;timestamp;P1;durP1;ratioP1;P2;durP2;ratioP2
67762;SDS011;54566;52.022;5.582;2023-07-31T00:02:21;1.70;;;1.30;;
67762;SDS011;54566;52.022;5.582;2023-07-31T00:04:47;1.95;;;1.25;;
67762;SDS011;54566;52.022;5.582;2023-07-31T00:07:14;1.52;;;1.42;;
67762;SDS011;54566;52.022;5.582;2023-07-31T00:09:40;4.72;;;1.90;;
67762;SDS011;54566;52.022;5.582;2023-07-31T00:12:06;5.22;;;2.00;;
67762;SDS011;54566;52.022;5.582;2023-07-31T00:14:32;2.35;;;1.85;;
67762;SDS011;54566;52.022;5.582;2023-07-31T00:16:58;2.20;;;2.00;;
67762;SDS011;54566;52.022;5.582;2023-07-31T00:19:24;3.85;;;2.30;;
67762;SDS011;54566;52.022;5.582;2023-07-31T00:21:50;3.97;;;2.28;;
67762;SDS011;54566;52.022;5.582;2023-07-31T00:24:16;5.15;;;2.88;;
67762;SDS011;54566;52.022;5.582;2023-07-31T00:26:42;7.25;;;3.45;;
67762;SDS011;54566;52.022;5.582;2023-07-31T00:29:08;6.50;;;3.65;;
67762;SDS011;54566;52.022;5.582;2023-07-31T00:31:34;11.60;;;4.28;;
67762;SDS011;54566;52.022;5.582;2023-07-31T00:34:00;18.55;;;5.03;;
67762;SDS011;54566;52.022;5.582;2023-07-31T00:36:26;19.88;;;5.90;;
67762;SDS011;54566;52.022;5.582;2023-07-31T00:38:52;24.75;;;6.93;;
67762;SDS011;54566;52.022;5.582;2023-07-31T00:41:18;29.60;;;7.40;;
67762;SDS011;54566;52.022;5.582;2023-07-31T00:43:44;39.63;;;8.48;;
67762;SDS011;54566;52.022;5.582;2023-07-31T00:46:10;42.38;;;8.70;;
67762;SDS011;54566;52.022;5.582;2023-07-31T00:48:36;45.45;;;9.48;;
67762;SDS011;54566;52.022;5.582;2023-07-31T00:51:03;54.25;;;9.00;;
67762;SDS011;54566;52.022;5.582;2023-07-31T00:53:29;48.53;;;10.80;;
67762;SDS011;54566;52.022;5.582;2023-07-31T00:55:55;44.70;;;9.95;;
67762;SDS011;54566;52.022;5.582;2023-07-31T00:58:22;36.70;;;9.48;;
67762;SDS011;54566;52.022;5.582;2023-07-31T01:00:48;38.60;;;10.30;;
67762;SDS011;54566;52.022;5.582;2023-07-31T01:03:15;38.70;;;8.95;;
67762;SDS011;54566;52.022;5.582;2023-07-31T01:08:12;48.95;;;9.95;;
67762;SDS011;54566;52.022;5.582;2023-07-31T01:10:46;49.10;;;9.48;;
67762;SDS011;54566;52.022;5.582;2023-07-31T01:13:12;40.10;;;9.77;;
67762;SDS011;54566;52.022;5.582;2023-07-31T01:15:38;47.13;;;10.35;;
67762;SDS011;54566;52.022;5.582;2023-07-31T01:18:04;43.53;;;10.95;;
67762;SDS011;54566;52.022;5.582;2023-07-31T01:20:30;37.55;;;9.43;;
67762;SDS011;54566;52.022;5.582;2023-07-31T01:28:14;45.05;;;10.50;;
67762;SDS011;54566;52.022;5.582;2023-07-31T01:30:43;38.10;;;9.07;;
67762;SDS011;54566;52.022;5.582;2023-07-31T01:33:10;49.40;;;10.88;;
67762;SDS011;54566;52.022;5.582;2023-07-31T01:35:36;40.50;;;9.82;;
67762;SDS011;54566;52.022;5.582;2023-07-31T01:38:03;39.97;;;9.75;;
67762;SDS011;54566;52.022;5.582;2023-07-31T01:40:29;46.70;;;9.70;;
67762;SDS011;54566;52.022;5.582;2023-07-31T01:42:55;35.30;;;8.75;;
67762;SDS011;54566;52.022;5.582;2023-07-31T01:45:21;37.55;;;8.23;;
67762;SDS011;54566;52.022;5.582;2023-07-31T01:47:47;42.45;;;9.02;;
67762;SDS011;54566;52.022;5.582;2023-07-31T01:50:13;37.40;;;8.77;;
67762;SDS011;54566;52.022;5.582;2023-07-31T01:52:39;39.47;;;9.05;;
67762;SDS011;54566;52.022;5.582;2023-07-31T01:55:05;46.50;;;9.55;;
67762;SDS011;54566;52.022;5.582;2023-07-31T01:57:31;40.50;;;9.15;;
67762;SDS011;54566;52.022;5.582;2023-07-31T01:59:57;35.90;;;8.98;;
67762;SDS011;54566;52.022;5.582;2023-07-31T02:02:23;35.85;;;8.65;;
67762;SDS011;54566;52.022;5.582;2023-07-31T02:04:49;39.58;;;8.65;;
67762;SDS011;54566;52.022;5.582;2023-07-31T02:07:15;36.42;;;7.95;;
67762;SDS011;54566;52.022;5.582;2023-07-31T02:09:41;23.75;;;6.13;;
67762;SDS011;54566;52.022;5.582;2023-07-31T02:12:07;25.00;;;5.75;;
67762;SDS011;54566;52.022;5.582;2023-07-31T02:14:34;14.77;;;5.50;;
67762;SDS011;54566;52.022;5.582;2023-07-31T02:17:00;19.45;;;5.28;;
67762;SDS011;54566;52.022;5.582;2023-07-31T02:19:26;20.25;;;5.43;;
67762;SDS011;54566;52.022;5.582;2023-07-31T02:21:52;19.25;;;5.13;;
67762;SDS011;54566;52.022;5.582;2023-07-31T02:24:18;17.45;;;4.57;;
67762;SDS011;54566;52.022;5.582;2023-07-31T02:26:44;15.80;;;4.68;;
67762;SDS011;54566;52.022;5.582;2023-07-31T02:29:10;24.58;;;5.38;;
67762;SDS011;54566;52.022;5.582;2023-07-31T02:31:36;24.52;;;5.57;;
67762;SDS011;54566;52.022;5.582;2023-07-31T02:34:02;23.05;;;5.65;;
67762;SDS011;54566;52.022;5.582;2023-07-31T02:36:28;28.45;;;6.57;;
67762;SDS011;54566;52.022;5.582;2023-07-31T02:38:54;25.17;;;6.93;;
67762;SDS011;54566;52.022;5.582;2023-07-31T02:41:20;31.85;;;7.00;;
67762;SDS011;54566;52.022;5.582;2023-07-31T02:43:46;30.70;;;7.60;;
67762;SDS011;54566;52.022;5.582;2023-07-31T02:46:12;30.73;;;7.25;;
67762;SDS011;54566;52.022;5.582;2023-07-31T02:48:38;27.02;;;7.05;;
67762;SDS011;54566;52.022;5.582;2023-07-31T02:51:04;43.00;;;8.13;;
67762;SDS011;54566;52.022;5.582;2023-07-31T02:53:30;34.03;;;7.60;;
67762;SDS011;54566;52.022;5.582;2023-07-31T02:55:56;31.10;;;7.95;;
67762;SDS011;54566;52.022;5.582;2023-07-31T02:58:22;35.85;;;7.82;;
67762;SDS011;54566;52.022;5.582;2023-07-31T03:00:48;35.08;;;7.85;;
67762;SDS011;54566;52.022;5.582;2023-07-31T03:03:14;37.45;;;8.30;;
67762;SDS011;54566;52.022;5.582;2023-07-31T03:05:40;37.53;;;7.97;;
67762;SDS011;54566;52.022;5.582;2023-07-31T03:08:06;31.98;;;8.10;;
67762;SDS011;54566;52.022;5.582;2023-07-31T03:10:32;33.10;;;8.20;;
67762;SDS011;54566;52.022;5.582;2023-07-31T03:12:58;33.88;;;7.63;;
67762;SDS011;54566;52.022;5.582;2023-07-31T03:15:24;34.30;;;8.15;;
67762;SDS011;54566;52.022;5.582;2023-07-31T03:17:50;33.60;;;8.15;;
67762;SDS011;54566;52.022;5.582;2023-07-31T03:20:16;28.67;;;7.50;;
67762;SDS011;54566;52.022;5.582;2023-07-31T03:22:42;30.58;;;7.47;;
67762;SDS011;54566;52.022;5.582;2023-07-31T03:25:08;31.90;;;7.78;;
67762;SDS011;54566;52.022;5.582;2023-07-31T03:27:35;29.13;;;7.78;;
67762;SDS011;54566;52.022;5.582;2023-07-31T03:30:03;26.43;;;8.30;;
67762;SDS011;54566;52.022;5.582;2023-07-31T03:32:29;32.58;;;8.45;;
67762;SDS011;54566;52.022;5.582;2023-07-31T03:34:55;27.77;;;8.48;;
67762;SDS011;54566;52.022;5.582;2023-07-31T03:37:21;34.65;;;7.55;;
67762;SDS011;54566;52.022;5.582;2023-07-31T03:39:47;30.02;;;8.20;;
67762;SDS011;54566;52.022;5.582;2023-07-31T03:42:13;31.98;;;7.60;;
67762;SDS011;54566;52.022;5.582;2023-07-31T03:44:39;30.35;;;7.78;;
67762;SDS011;54566;52.022;5.582;2023-07-31T03:47:05;29.08;;;7.18;;
67762;SDS011;54566;52.022;5.582;2023-07-31T03:49:31;33.47;;;7.63;;
67762;SDS011;54566;52.022;5.582;2023-07-31T03:51:57;30.88;;;7.75;;
67762;SDS011;54566;52.022;5.582;2023-07-31T03:54:23;36.15;;;7.70;;
67762;SDS011;54566;52.022;5.582;2023-07-31T03:56:50;29.20;;;7.68;;
67762;SDS011;54566;52.022;5.582;2023-07-31T03:59:15;28.58;;;7.25;;
67762;SDS011;54566;52.022;5.582;2023-07-31T04:01:41;35.25;;;7.75;;
67762;SDS011;54566;52.022;5.582;2023-07-31T04:04:07;25.80;;;7.10;;
67762;SDS011;54566;52.022;5.582;2023-07-31T04:06:33;34.28;;;6.97;;
67762;SDS011;54566;52.022;5.582;2023-07-31T04:08:59;27.63;;;8.27;;
67762;SDS011;54566;52.022;5.582;2023-07-31T04:11:25;25.40;;;7.43;;
67762;SDS011;54566;52.022;5.582;2023-07-31T04:13:51;30.85;;;8.02;;
67762;SDS011;54566;52.022;5.582;2023-07-31T04:16:17;28.73;;;7.60;;
67762;SDS011;54566;52.022;5.582;2023-07-31T04:18:43;28.42;;;6.93;;
67762;SDS011;54566;52.022;5.582;2023-07-31T04:21:09;30.05;;;6.50;;
67762;SDS011;54566;52.022;5.582;2023-07-31T04:23:35;24.50;;;6.18;;
67762;SDS011;54566;52.022;5.582;2023-07-31T04:26:01;25.67;;;6.97;;
67762;SDS011;54566;52.022;5.582;2023-07-31T04:28:27;30.65;;;7.13;;
67762;SDS011;54566;52.022;5.582;2023-07-31T04:30:56;26.10;;;6.55;;
67762;SDS011;54566;52.022;5.582;2023-07-31T04:33:22;23.98;;;7.15;;
67762;SDS011;54566;52.022;5.582;2023-07-31T04:35:51;24.10;;;7.30;;
67762;SDS011;54566;52.022;5.582;2023-07-31T04:38:21;27.17;;;7.78;;
67762;SDS011;54566;52.022;5.582;2023-07-31T04:40:48;28.60;;;6.97;;
67762;SDS011;54566;52.022;5.582;2023-07-31T04:43:14;28.42;;;6.53;;
67762;SDS011;54566;52.022;5.582;2023-07-31T04:45:42;29.27;;;7.45;;
67762;SDS011;54566;52.022;5.582;2023-07-31T04:48:08;24.10;;;6.57;;
67762;SDS011;54566;52.022;5.582;2023-07-31T04:50:34;28.83;;;7.20;;
67762;SDS011;54566;52.022;5.582;2023-07-31T04:53:00;33.08;;;7.22;;
67762;SDS011;54566;52.022;5.582;2023-07-31T04:55:26;21.05;;;6.30;;
67762;SDS011;54566;52.022;5.582;2023-07-31T04:57:55;33.40;;;7.00;;
67762;SDS011;54566;52.022;5.582;2023-07-31T05:00:21;33.38;;;7.05;;
67762;SDS011;54566;52.022;5.582;2023-07-31T05:02:47;27.42;;;6.60;;
67762;SDS011;54566;52.022;5.582;2023-07-31T05:05:13;25.23;;;5.93;;
67762;SDS011;54566;52.022;5.582;2023-07-31T05:07:39;23.77;;;6.55;;
67762;SDS011;54566;52.022;5.582;2023-07-31T05:10:06;30.95;;;6.90;;
67762;SDS011;54566;52.022;5.582;2023-07-31T05:12:32;20.77;;;6.38;;
67762;SDS011;54566;52.022;5.582;2023-07-31T05:14:58;18.35;;;5.75;;
67762;SDS011;54566;52.022;5.582;2023-07-31T05:17:24;26.70;;;6.05;;
67762;SDS011;54566;52.022;5.582;2023-07-31T05:19:50;23.63;;;5.72;;
67762;SDS011;54566;52.022;5.582;2023-07-31T05:22:16;22.50;;;6.28;;
67762;SDS011;54566;52.022;5.582;2023-07-31T05:24:42;24.20;;;5.18;;
67762;SDS011;54566;52.022;5.582;2023-07-31T05:27:08;22.23;;;5.72;;
67762;SDS011;54566;52.022;5.582;2023-07-31T05:29:34;19.80;;;6.07;;
67762;SDS011;54566;52.022;5.582;2023-07-31T05:32:00;19.65;;;5.97;;
67762;SDS011;54566;52.022;5.582;2023-07-31T05:34:27;25.08;;;6.20;;
67762;SDS011;54566;52.022;5.582;2023-07-31T05:36:53;22.67;;;6.60;;
67762;SDS011;54566;52.022;5.582;2023-07-31T05:39:19;19.60;;;6.15;;
67762;SDS011;54566;52.022;5.582;2023-07-31T05:41:45;29.65;;;7.03;;
67762;SDS011;54566;52.022;5.582;2023-07-31T05:44:11;25.02;;;6.20;;
67762;SDS011;54566;52.022;5.582;2023-07-31T05:46:37;21.77;;;6.68;;
67762;SDS011;54566;52.022;5.582;2023-07-31T05:49:03;19.30;;;6.63;;
67762;SDS011;54566;52.022;5.582;2023-07-31T05:51:29;24.25;;;6.72;;
67762;SDS011;54566;52.022;5.582;2023-07-31T05:53:55;20.83;;;7.28;;
67762;SDS011;54566;52.022;5.582;2023-07-31T05:56:21;22.45;;;7.10;;
67762;SDS011;54566;52.022;5.582;2023-07-31T05:58:48;19.70;;;6.88;;
67762;SDS011;54566;52.022;5.582;2023-07-31T06:01:15;14.52;;;6.25;;
67762;SDS011;54566;52.022;5.582;2023-07-31T06:03:42;17.40;;;6.40;;
67762;SDS011;54566;52.022;5.582;2023-07-31T06:06:08;25.15;;;7.00;;
67762;SDS011;54566;52.022;5.582;2023-07-31T06:08:34;21.25;;;6.20;;
67762;SDS011;54566;52.022;5.582;2023-07-31T06:11:00;20.70;;;6.13;;
67762;SDS011;54566;52.022;5.582;2023-07-31T06:13:26;22.48;;;5.60;;
67762;SDS011;54566;52.022;5.582;2023-07-31T06:15:52;19.33;;;5.82;;
67762;SDS011;54566;52.022;5.582;2023-07-31T06:18:18;20.42;;;5.63;;
67762;SDS011;54566;52.022;5.582;2023-07-31T06:20:43;29.08;;;6.07;;
67762;SDS011;54566;52.022;5.582;2023-07-31T06:23:10;21.08;;;5.32;;
67762;SDS011;54566;52.022;5.582;2023-07-31T06:25:36;13.07;;;5.18;;
67762;SDS011;54566;52.022;5.582;2023-07-31T06:28:02;22.83;;;5.30;;
67762;SDS011;54566;52.022;5.582;2023-07-31T06:30:28;18.10;;;5.13;;
67762;SDS011;54566;52.022;5.582;2023-07-31T06:32:53;14.88;;;4.88;;
67762;SDS011;54566;52.022;5.582;2023-07-31T06:35:19;14.43;;;5.40;;
67762;SDS011;54566;52.022;5.582;2023-07-31T06:37:46;12.25;;;4.55;;
67762;SDS011;54566;52.022;5.582;2023-07-31T06:40:12;16.45;;;4.88;;
67762;SDS011;54566;52.022;5.582;2023-07-31T06:42:38;20.98;;;4.70;;
67762;SDS011;54566;52.022;5.582;2023-07-31T06:45:04;9.15;;;4.30;;
67762;SDS011;54566;52.022;5.582;2023-07-31T06:47:30;15.35;;;4.00;;
67762;SDS011;54566;52.022;5.582;2023-07-31T06:49:57;11.15;;;4.82;;
67762;SDS011;54566;52.022;5.582;2023-07-31T06:52:23;11.63;;;3.65;;
67762;SDS011;54566;52.022;5.582;2023-07-31T06:55:00;8.32;;;3.45;;
67762;SDS011;54566;52.022;5.582;2023-07-31T06:57:27;13.35;;;4.10;;
67762;SDS011;54566;52.022;5.582;2023-07-31T06:59:53;7.03;;;3.53;;
67762;SDS011;54566;52.022;5.582;2023-07-31T07:02:19;10.23;;;3.50;;
67762;SDS011;54566;52.022;5.582;2023-07-31T07:04:45;9.02;;;3.75;;
67762;SDS011;54566;52.022;5.582;2023-07-31T07:07:11;9.90;;;3.75;;
67762;SDS011;54566;52.022;5.582;2023-07-31T07:09:37;6.18;;;2.60;;
67762;SDS011;54566;52.022;5.582;2023-07-31T07:12:03;6.03;;;2.90;;
67762;SDS011;54566;52.022;5.582;2023-07-31T07:14:29;7.72;;;3.05;;
67762;SDS011;54566;52.022;5.582;2023-07-31T07:16:55;7.70;;;3.05;;
67762;SDS011;54566;52.022;5.582;2023-07-31T07:19:21;6.63;;;3.08;;
67762;SDS011;54566;52.022;5.582;2023-07-31T07:21:47;5.63;;;3.00;;
67762;SDS011;54566;52.022;5.582;2023-07-31T07:24:13;5.70;;;2.95;;
67762;SDS011;54566;52.022;5.582;2023-07-31T07:26:39;4.75;;;2.65;;
67762;SDS011;54566;52.022;5.582;2023-07-31T07:29:05;5.78;;;2.95;;
67762;SDS011;54566;52.022;5.582;2023-07-31T07:31:32;7.85;;;3.28;;
67762;SDS011;54566;52.022;5.582;2023-07-31T07:33:59;12.63;;;4.60;;
67762;SDS011;54566;52.022;5.582;2023-07-31T07:36:27;7.35;;;3.00;;
67762;SDS011;54566;52.022;5.582;2023-07-31T07:38:53;3.95;;;2.88;;
67762;SDS011;54566;52.022;5.582;2023-07-31T07:41:19;5.47;;;3.25;;
67762;SDS011;54566;52.022;5.582;2023-07-31T07:43:45;6.40;;;3.83;;
67762;SDS011;54566;52.022;5.582;2023-07-31T07:46:11;11.40;;;3.42;;
67762;SDS011;54566;52.022;5.582;2023-07-31T07:48:37;9.40;;;3.65;;
67762;SDS011;54566;52.022;5.582;2023-07-31T07:51:03;5.28;;;3.28;;
67762;SDS011;54566;52.022;5.582;2023-07-31T07:53:29;7.63;;;3.55;;
67762;SDS011;54566;52.022;5.582;2023-07-31T07:55:55;6.68;;;3.42;;
67762;SDS011;54566;52.022;5.582;2023-07-31T07:58:21;8.27;;;3.78;;
67762;SDS011;54566;52.022;5.582;2023-07-31T08:00:50;10.45;;;3.58;;
67762;SDS011;54566;52.022;5.582;2023-07-31T08:03:17;9.90;;;3.33;;
67762;SDS011;54566;52.022;5.582;2023-07-31T08:05:43;6.35;;;3.50;;
67762;SDS011;54566;52.022;5.582;2023-07-31T08:08:13;6.05;;;3.60;;
67762;SDS011;54566;52.022;5.582;2023-07-31T08:10:40;6.78;;;2.90;;
67762;SDS011;54566;52.022;5.582;2023-07-31T08:13:06;5.95;;;3.17;;
67762;SDS011;54566;52.022;5.582;2023-07-31T08:15:32;6.65;;;3.20;;
67762;SDS011;54566;52.022;5.582;2023-07-31T08:17:58;6.30;;;3.10;;
67762;SDS011;54566;52.022;5.582;2023-07-31T08:20:24;7.38;;;3.40;;
67762;SDS011;54566;52.022;5.582;2023-07-31T08:22:50;5.75;;;3.20;;
67762;SDS011;54566;52.022;5.582;2023-07-31T08:25:16;4.25;;;2.95;;
67762;SDS011;54566;52.022;5.582;2023-07-31T08:27:45;5.00;;;3.15;;
67762;SDS011;54566;52.022;5.582;2023-07-31T08:30:11;6.20;;;3.50;;
67762;SDS011;54566;52.022;5.582;2023-07-31T08:32:37;6.50;;;3.20;;
67762;SDS011;54566;52.022;5.582;2023-07-31T08:35:03;3.78;;;2.95;;
67762;SDS011;54566;52.022;5.582;2023-07-31T08:37:29;6.28;;;2.95;;
67762;SDS011;54566;52.022;5.582;2023-07-31T08:39:55;6.88;;;2.92;;
67762;SDS011;54566;52.022;5.582;2023-07-31T08:42:23;4.40;;;3.00;;
67762;SDS011;54566;52.022;5.582;2023-07-31T08:44:50;4.55;;;2.80;;
67762;SDS011;54566;52.022;5.582;2023-07-31T08:47:17;4.70;;;2.67;;
67762;SDS011;54566;52.022;5.582;2023-07-31T08:49:44;6.35;;;2.53;;
67762;SDS011;54566;52.022;5.582;2023-07-31T08:52:12;3.22;;;2.50;;
67762;SDS011;54566;52.022;5.582;2023-07-31T08:54:38;3.83;;;2.47;;
67762;SDS011;54566;52.022;5.582;2023-07-31T08:57:04;4.15;;;2.40;;
67762;SDS011;54566;52.022;5.582;2023-07-31T08:59:31;3.58;;;2.88;;
67762;SDS011;54566;52.022;5.582;2023-07-31T09:01:57;6.45;;;2.63;;
67762;SDS011;54566;52.022;5.582;2023-07-31T09:04:24;3.60;;;2.65;;
67762;SDS011;54566;52.022;5.582;2023-07-31T09:06:51;4.10;;;2.83;;
67762;SDS011;54566;52.022;5.582;2023-07-31T09:09:17;6.90;;;3.10;;
67762;SDS011;54566;52.022;5.582;2023-07-31T09:11:45;8.43;;;3.10;;
67762;SDS011;54566;52.022;5.582;2023-07-31T09:14:11;6.25;;;3.20;;
67762;SDS011;54566;52.022;5.582;2023-07-31T09:16:51;3.40;;;2.80;;
67762;SDS011;54566;52.022;5.582;2023-07-31T09:19:24;4.85;;;3.30;;
67762;SDS011;54566;52.022;5.582;2023-07-31T09:21:51;4.13;;;3.50;;
67762;SDS011;54566;52.022;5.582;2023-07-31T09:24:27;4.93;;;3.78;;
67762;SDS011;54566;52.022;5.582;2023-07-31T09:26:53;5.70;;;4.05;;
67762;SDS011;54566;52.022;5.582;2023-07-31T09:29:26;6.93;;;4.10;;
67762;SDS011;54566;52.022;5.582;2023-07-31T09:31:53;8.00;;;4.25;;
67762;SDS011;54566;52.022;5.582;2023-07-31T09:34:20;8.80;;;4.63;;
67762;SDS011;54566;52.022;5.582;2023-07-31T09:36:47;8.95;;;5.07;;
67762;SDS011;54566;52.022;5.582;2023-07-31T09:39:14;11.77;;;5.45;;
67762;SDS011;54566;52.022;5.582;2023-07-31T09:41:42;13.30;;;5.57;;
67762;SDS011;54566;52.022;5.582;2023-07-31T09:44:09;8.55;;;5.20;;
67762;SDS011;54566;52.022;5.582;2023-07-31T09:46:35;9.52;;;5.60;;
67762;SDS011;54566;52.022;5.582;2023-07-31T09:49:12;8.45;;;5.40;;
67762;SDS011;54566;52.022;5.582;2023-07-31T09:51:39;15.18;;;5.00;;
67762;SDS011;54566;52.022;5.582;2023-07-31T09:54:14;10.35;;;5.88;;
67762;SDS011;54566;52.022;5.582;2023-07-31T09:56:42;11.95;;;5.75;;
67762;SDS011;54566;52.022;5.582;2023-07-31T09:59:10;10.07;;;5.93;;
67762;SDS011;54566;52.022;5.582;2023-07-31T10:01:36;8.90;;;5.88;;
67762;SDS011;54566;52.022;5.582;2023-07-31T10:04:02;10.38;;;6.25;;
67762;SDS011;54566;52.022;5.582;2023-07-31T10:06:29;12.18;;;6.63;;
67762;SDS011;54566;52.022;5.582;2023-07-31T10:08:56;11.98;;;6.35;;
67762;SDS011;54566;52.022;5.582;2023-07-31T10:11:22;9.25;;;6.55;;
67762;SDS011;54566;52.022;5.582;2023-07-31T10:16:16;11.27;;;6.50;;
67762;SDS011;54566;52.022;5.582;2023-07-31T10:18:43;15.50;;;7.40;;
67762;SDS011;54566;52.022;5.582;2023-07-31T10:21:10;12.35;;;6.25;;
67762;SDS011;54566;52.022;5.582;2023-07-31T10:23:36;9.98;;;6.20;;
67762;SDS011;54566;52.022;5.582;2023-07-31T10:26:03;10.18;;;6.55;;
67762;SDS011;54566;52.022;5.582;2023-07-31T10:28:31;12.10;;;6.65;;
67762;SDS011;54566;52.022;5.582;2023-07-31T10:30:58;12.50;;;5.47;;
67762;SDS011;54566;52.022;5.582;2023-07-31T10:33:25;8.38;;;5.80;;
67762;SDS011;54566;52.022;5.582;2023-07-31T10:35:51;10.10;;;6.07;;
67762;SDS011;54566;52.022;5.582;2023-07-31T10:38:37;12.50;;;5.75;;
67762;SDS011;54566;52.022;5.582;2023-07-31T10:41:09;9.10;;;5.43;;
67762;SDS011;54566;52.022;5.582;2023-07-31T10:43:36;10.55;;;5.20;;
67762;SDS011;54566;52.022;5.582;2023-07-31T10:46:09;6.97;;;5.30;;
67762;SDS011;54566;52.022;5.582;2023-07-31T10:48:38;11.13;;;4.90;;
67762;SDS011;54566;52.022;5.582;2023-07-31T10:51:10;11.30;;;4.82;;
67762;SDS011;54566;52.022;5.582;2023-07-31T10:53:37;9.65;;;5.10;;
67762;SDS011;54566;52.022;5.582;2023-07-31T10:56:04;7.18;;;4.70;;
67762;SDS011;54566;52.022;5.582;2023-07-31T10:58:30;8.57;;;4.72;;
67762;SDS011;54566;52.022;5.582;2023-07-31T11:01:01;6.40;;;4.63;;
67762;SDS011;54566;52.022;5.582;2023-07-31T11:06:08;8.18;;;4.90;;
67762;SDS011;54566;52.022;5.582;2023-07-31T11:08:44;7.82;;;5.00;;
67762;SDS011;54566;52.022;5.582;2023-07-31T11:11:11;12.02;;;5.00;;
67762;SDS011;54566;52.022;5.582;2023-07-31T11:16:07;8.65;;;4.32;;
67762;SDS011;54566;52.022;5.582;2023-07-31T11:18:34;5.38;;;3.50;;
67762;SDS011;54566;52.022;5.582;2023-07-31T11:21:00;6.68;;;3.42;;
67762;SDS011;54566;52.022;5.582;2023-07-31T11:23:27;10.85;;;3.83;;
67762;SDS011;54566;52.022;5.582;2023-07-31T11:25:53;11.70;;;4.40;;
67762;SDS011;54566;52.022;5.582;2023-07-31T11:28:24;6.72;;;4.38;;
67762;SDS011;54566;52.022;5.582;2023-07-31T11:30:50;7.88;;;4.85;;
67762;SDS011;54566;52.022;5.582;2023-07-31T11:33:16;9.02;;;5.03;;
67762;SDS011;54566;52.022;5.582;2023-07-31T11:35:46;7.68;;;4.40;;
67762;SDS011;54566;52.022;5.582;2023-07-31T11:38:23;5.90;;;4.25;;
67762;SDS011;54566;52.022;5.582;2023-07-31T11:40:49;8.35;;;4.43;;
67762;SDS011;54566;52.022;5.582;2023-07-31T11:43:15;7.88;;;4.60;;
67762;SDS011;54566;52.022;5.582;2023-07-31T11:45:50;9.80;;;4.28;;
67762;SDS011;54566;52.022;5.582;2023-07-31T11:48:23;5.22;;;4.38;;
67762;SDS011;54566;52.022;5.582;2023-07-31T11:50:50;6.07;;;3.95;;
67762;SDS011;54566;52.022;5.582;2023-07-31T11:53:17;6.90;;;4.47;;
67762;SDS011;54566;52.022;5.582;2023-07-31T11:55:45;6.85;;;3.75;;
67762;SDS011;54566;52.022;5.582;2023-07-31T11:58:11;6.88;;;4.10;;
67762;SDS011;54566;52.022;5.582;2023-07-31T12:00:37;5.95;;;3.70;;
67762;SDS011;54566;52.022;5.582;2023-07-31T12:03:03;6.13;;;3.47;;
67762;SDS011;54566;52.022;5.582;2023-07-31T12:05:29;5.03;;;3.78;;
67762;SDS011;54566;52.022;5.582;2023-07-31T12:07:55;5.53;;;3.40;;
67762;SDS011;54566;52.022;5.582;2023-07-31T12:10:29;6.38;;;3.40;;
67762;SDS011;54566;52.022;5.582;2023-07-31T12:12:59;5.22;;;3.05;;
67762;SDS011;54566;52.022;5.582;2023-07-31T12:15:33;5.60;;;3.38;;
67762;SDS011;54566;52.022;5.582;2023-07-31T12:17:59;4.57;;;2.80;;
67762;SDS011;54566;52.022;5.582;2023-07-31T12:20:25;4.28;;;3.20;;
67762;SDS011;54566;52.022;5.582;2023-07-31T12:22:51;5.82;;;2.83;;
67762;SDS011;54566;52.022;5.582;2023-07-31T12:25:17;3.05;;;2.70;;
67762;SDS011;54566;52.022;5.582;2023-07-31T12:27:44;3.42;;;2.80;;
67762;SDS011;54566;52.022;5.582;2023-07-31T12:30:26;5.65;;;2.85;;
67762;SDS011;54566;52.022;5.582;2023-07-31T12:32:53;8.10;;;3.42;;
67762;SDS011;54566;52.022;5.582;2023-07-31T12:35:19;9.07;;;3.65;;
67762;SDS011;54566;52.022;5.582;2023-07-31T12:37:45;6.72;;;3.65;;
67762;SDS011;54566;52.022;5.582;2023-07-31T12:40:11;5.18;;;3.50;;
67762;SDS011;54566;52.022;5.582;2023-07-31T12:42:37;4.78;;;3.85;;
67762;SDS011;54566;52.022;5.582;2023-07-31T12:45:03;6.45;;;4.18;;
67762;SDS011;54566;52.022;5.582;2023-07-31T12:47:29;5.07;;;3.88;;
67762;SDS011;54566;52.022;5.582;2023-07-31T12:49:55;4.60;;;4.13;;
67762;SDS011;54566;52.022;5.582;2023-07-31T12:52:21;8.95;;;4.32;;
67762;SDS011;54566;52.022;5.582;2023-07-31T12:54:47;5.93;;;4.70;;
67762;SDS011;54566;52.022;5.582;2023-07-31T12:57:13;8.60;;;5.05;;
67762;SDS011;54566;52.022;5.582;2023-07-31T12:59:39;9.10;;;4.88;;
67762;SDS011;54566;52.022;5.582;2023-07-31T13:02:05;7.70;;;4.88;;
67762;SDS011;54566;52.022;5.582;2023-07-31T13:04:31;6.65;;;4.85;;
67762;SDS011;54566;52.022;5.582;2023-07-31T13:06:57;6.90;;;4.82;;
67762;SDS011;54566;52.022;5.582;2023-07-31T13:09:23;5.93;;;5.15;;
67762;SDS011;54566;52.022;5.582;2023-07-31T13:11:49;7.15;;;4.97;;
67762;SDS011;54566;52.022;5.582;2023-07-31T13:14:15;11.57;;;5.75;;
67762;SDS011;54566;52.022;5.582;2023-07-31T13:16:42;8.88;;;5.28;;
67762;SDS011;54566;52.022;5.582;2023-07-31T13:19:08;8.30;;;5.20;;
67762;SDS011;54566;52.022;5.582;2023-07-31T13:21:34;11.15;;;5.32;;
67762;SDS011;54566;52.022;5.582;2023-07-31T13:24:01;10.43;;;5.13;;
67762;SDS011;54566;52.022;5.582;2023-07-31T13:26:28;7.25;;;4.85;;
67762;SDS011;54566;52.022;5.582;2023-07-31T13:28:54;10.50;;;5.65;;
67762;SDS011;54566;52.022;5.582;2023-07-31T13:31:20;7.38;;;5.38;;
67762;SDS011;54566;52.022;5.582;2023-07-31T13:33:46;10.82;;;5.53;;
67762;SDS011;54566;52.022;5.582;2023-07-31T13:36:12;7.45;;;5.65;;
67762;SDS011;54566;52.022;5.582;2023-07-31T13:38:39;8.00;;;4.97;;
67762;SDS011;54566;52.022;5.582;2023-07-31T13:41:05;8.18;;;5.20;;
67762;SDS011;54566;52.022;5.582;2023-07-31T13:43:31;6.90;;;4.97;;
67762;SDS011;54566;52.022;5.582;2023-07-31T13:45:57;9.05;;;6.05;;
67762;SDS011;54566;52.022;5.582;2023-07-31T13:48:29;7.75;;;5.60;;
67762;SDS011;54566;52.022;5.582;2023-07-31T13:50:56;7.80;;;5.97;;
67762;SDS011;54566;52.022;5.582;2023-07-31T13:53:22;7.63;;;6.20;;
67762;SDS011;54566;52.022;5.582;2023-07-31T13:55:48;11.38;;;6.25;;
67762;SDS011;54566;52.022;5.582;2023-07-31T13:58:14;11.55;;;7.03;;
67762;SDS011;54566;52.022;5.582;2023-07-31T14:00:40;13.85;;;6.65;;
67762;SDS011;54566;52.022;5.582;2023-07-31T14:03:06;13.85;;;7.78;;
67762;SDS011;54566;52.022;5.582;2023-07-31T14:05:32;16.00;;;7.78;;
67762;SDS011;54566;52.022;5.582;2023-07-31T14:07:58;12.63;;;7.60;;
67762;SDS011;54566;52.022;5.582;2023-07-31T14:10:24;14.25;;;7.57;;
67762;SDS011;54566;52.022;5.582;2023-07-31T14:12:50;12.18;;;7.75;;
67762;SDS011;54566;52.022;5.582;2023-07-31T14:15:16;13.13;;;7.80;;
67762;SDS011;54566;52.022;5.582;2023-07-31T14:17:42;12.60;;;7.55;;
67762;SDS011;54566;52.022;5.582;2023-07-31T14:20:08;9.60;;;7.15;;
67762;SDS011;54566;52.022;5.582;2023-07-31T14:22:34;12.18;;;7.97;;
67762;SDS011;54566;52.022;5.582;2023-07-31T14:25:01;14.07;;;7.38;;
67762;SDS011;54566;52.022;5.582;2023-07-31T14:27:27;20.10;;;7.22;;
67762;SDS011;54566;52.022;5.582;2023-07-31T14:29:53;13.98;;;7.93;;
67762;SDS011;54566;52.022;5.582;2023-07-31T14:32:19;14.07;;;7.22;;
67762;SDS011;54566;52.022;5.582;2023-07-31T14:34:45;14.95;;;7.13;;
67762;SDS011;54566;52.022;5.582;2023-07-31T14:37:11;12.02;;;6.25;;
67762;SDS011;54566;52.022;5.582;2023-07-31T14:39:37;14.57;;;6.03;;
67762;SDS011;54566;52.022;5.582;2023-07-31T14:42:03;10.85;;;5.32;;
67762;SDS011;54566;52.022;5.582;2023-07-31T14:44:29;10.15;;;5.30;;
67762;SDS011;54566;52.022;5.582;2023-07-31T14:46:56;12.82;;;5.72;;
67762;SDS011;54566;52.022;5.582;2023-07-31T14:49:22;9.25;;;4.82;;
67762;SDS011;54566;52.022;5.582;2023-07-31T14:51:48;11.02;;;5.15;;
67762;SDS011;54566;52.022;5.582;2023-07-31T14:54:14;8.57;;;5.03;;